sensor_id;sensor_type;location;lat;lon;timestamp;P1;durP1;ratioP1;P2;durP2;ratioP2
3647;SDS011;1840;48.892;15.312;2022-07-23T00:00:56;20.00;;;12.77;;
3647;SDS011;1840;48.892;15.312;2022-07-23T00:03:25;20.20;;;11.50;;
3647;SDS011;1840;48.892;15.312;2022-07-23T00:05:53;18.77;;;12.43;;
3647;SDS011;1840;48.892;15.312;2022-07-23T00:08:22;16.70;;;11.47;;
3647;SDS011;1840;48.892;15.312;2022-07-23T00:10:50;21.73;;;11.40;;
3647;SDS011;1840;48.892;15.312;2022-07-23T00:13:18;16.43;;;12.57;;
3647;SDS011;1840;48.892;15.312;2022-07-23T00:15:45;17.67;;;12.70;;
3647;SDS011;1840;48.892;15.312;2022-07-23T00:18:14;18.80;;;11.50;;
3647;SDS011;1840;48.892;15.312;2022-07-23T00:20:43;19.67;;;12.57;;
3647;SDS011;1840;48.892;15.312;2022-07-23T00:23:11;20.93;;;13.03;;
3647;SDS011;1840;48.892;15.312;2022-07-23T00:25:39;15.97;;;12.00;;
3647;SDS011;1840;48.892;15.312;2022-07-23T00:28:07;22.43;;;13.60;;
3647;SDS011;1840;48.892;15.312;2022-07-23T00:30:35;18.77;;;12.77;;
3647;SDS011;1840;48.892;15.312;2022-07-23T00:33:04;15.93;;;11.97;;
3647;SDS011;1840;48.892;15.312;2022-07-23T00:35:35;17.50;;;11.40;;
3647;SDS011;1840;48.892;15.312;2022-07-23T00:38:08;17.40;;;11.87;;
3647;SDS011;1840;48.892;15.312;2022-07-23T00:40:37;18.70;;;12.57;;
3647;SDS011;1840;48.892;15.312;2022-07-23T00:43:05;16.67;;;12.93;;
3647;SDS011;1840;48.892;15.312;2022-07-23T00:45:33;16.80;;;11.80;;
3647;SDS011;1840;48.892;15.312;2022-07-23T00:48:02;19.40;;;13.43;;
3647;SDS011;1840;48.892;15.312;2022-07-23T00:50:30;17.70;;;11.53;;
3647;SDS011;1840;48.892;15.312;2022-07-23T00:52:58;17.77;;;12.90;;
3647;SDS011;1840;48.892;15.312;2022-07-23T00:55:28;17.87;;;12.57;;
3647;SDS011;1840;48.892;15.312;2022-07-23T00:57:56;20.13;;;11.57;;
3647;SDS011;1840;48.892;15.312;2022-07-23T01:00:25;15.60;;;11.87;;
3647;SDS011;1840;48.892;15.312;2022-07-23T01:02:53;24.70;;;13.03;;
3647;SDS011;1840;48.892;15.312;2022-07-23T01:05:22;18.73;;;12.53;;
3647;SDS011;1840;48.892;15.312;2022-07-23T01:07:50;17.80;;;12.07;;
3647;SDS011;1840;48.892;15.312;2022-07-23T01:10:22;21.27;;;13.07;;
3647;SDS011;1840;48.892;15.312;2022-07-23T01:13:02;16.13;;;12.30;;
3647;SDS011;1840;48.892;15.312;2022-07-23T01:15:33;22.00;;;12.70;;
3647;SDS011;1840;48.892;15.312;2022-07-23T01:18:03;20.03;;;12.63;;
3647;SDS011;1840;48.892;15.312;2022-07-23T01:20:32;20.37;;;14.30;;
3647;SDS011;1840;48.892;15.312;2022-07-23T01:23:02;20.57;;;12.93;;
3647;SDS011;1840;48.892;15.312;2022-07-23T01:25:30;16.60;;;12.50;;
3647;SDS011;1840;48.892;15.312;2022-07-23T01:27:59;21.73;;;13.20;;
3647;SDS011;1840;48.892;15.312;2022-07-23T01:30:27;22.43;;;12.73;;
3647;SDS011;1840;48.892;15.312;2022-07-23T01:32:55;17.27;;;12.43;;
3647;SDS011;1840;48.892;15.312;2022-07-23T01:35:25;21.87;;;13.07;;
3647;SDS011;1840;48.892;15.312;2022-07-23T01:37:53;16.37;;;12.80;;
3647;SDS011;1840;48.892;15.312;2022-07-23T01:40:22;16.33;;;13.07;;
3647;SDS011;1840;48.892;15.312;2022-07-23T01:42:59;17.10;;;11.87;;
3647;SDS011;1840;48.892;15.312;2022-07-23T01:45:27;17.80;;;12.33;;
3647;SDS011;1840;48.892;15.312;2022-07-23T01:47:55;24.43;;;13.20;;
3647;SDS011;1840;48.892;15.312;2022-07-23T01:50:23;18.53;;;11.23;;
3647;SDS011;1840;48.892;15.312;2022-07-23T01:52:51;22.70;;;13.10;;
3647;SDS011;1840;48.892;15.312;2022-07-23T01:55:19;17.60;;;11.43;;
3647;SDS011;1840;48.892;15.312;2022-07-23T01:57:48;20.13;;;13.03;;
3647;SDS011;1840;48.892;15.312;2022-07-23T02:00:16;18.33;;;13.33;;
3647;SDS011;1840;48.892;15.312;2022-07-23T02:02:44;17.67;;;12.53;;
3647;SDS011;1840;48.892;15.312;2022-07-23T02:05:12;20.63;;;13.20;;
3647;SDS011;1840;48.892;15.312;2022-07-23T02:07:40;17.93;;;11.30;;
3647;SDS011;1840;48.892;15.312;2022-07-23T02:10:09;27.27;;;12.07;;
3647;SDS011;1840;48.892;15.312;2022-07-23T02:12:37;18.03;;;12.20;;
3647;SDS011;1840;48.892;15.312;2022-07-23T02:15:07;22.63;;;11.67;;
3647;SDS011;1840;48.892;15.312;2022-07-23T02:17:35;15.83;;;12.03;;
3647;SDS011;1840;48.892;15.312;2022-07-23T02:20:04;21.50;;;13.23;;
3647;SDS011;1840;48.892;15.312;2022-07-23T02:22:34;21.23;;;13.67;;
3647;SDS011;1840;48.892;15.312;2022-07-23T02:25:02;17.43;;;13.40;;
3647;SDS011;1840;48.892;15.312;2022-07-23T02:27:31;15.97;;;11.80;;
3647;SDS011;1840;48.892;15.312;2022-07-23T02:29:59;18.97;;;12.23;;
3647;SDS011;1840;48.892;15.312;2022-07-23T02:32:29;18.27;;;12.77;;
3647;SDS011;1840;48.892;15.312;2022-07-23T02:34:57;15.83;;;12.00;;
3647;SDS011;1840;48.892;15.312;2022-07-23T02:37:26;19.70;;;13.20;;
3647;SDS011;1840;48.892;15.312;2022-07-23T02:39:54;16.80;;;12.37;;
3647;SDS011;1840;48.892;15.312;2022-07-23T02:42:23;20.20;;;13.57;;
3647;SDS011;1840;48.892;15.312;2022-07-23T02:44:51;19.17;;;13.00;;
3647;SDS011;1840;48.892;15.312;2022-07-23T02:47:19;21.13;;;12.73;;
3647;SDS011;1840;48.892;15.312;2022-07-23T02:49:50;19.53;;;13.27;;
3647;SDS011;1840;48.892;15.312;2022-07-23T02:52:18;18.83;;;12.43;;
3647;SDS011;1840;48.892;15.312;2022-07-23T02:54:47;20.70;;;12.33;;
3647;SDS011;1840;48.892;15.312;2022-07-23T02:57:15;17.60;;;13.03;;
3647;SDS011;1840;48.892;15.312;2022-07-23T02:59:43;21.00;;;12.93;;
3647;SDS011;1840;48.892;15.312;2022-07-23T03:02:11;16.63;;;12.00;;
3647;SDS011;1840;48.892;15.312;2022-07-23T03:04:39;22.30;;;13.03;;
3647;SDS011;1840;48.892;15.312;2022-07-23T03:07:10;25.07;;;13.40;;
3647;SDS011;1840;48.892;15.312;2022-07-23T03:09:38;17.00;;;13.03;;
3647;SDS011;1840;48.892;15.312;2022-07-23T03:12:06;17.97;;;13.30;;
3647;SDS011;1840;48.892;15.312;2022-07-23T03:14:39;23.83;;;14.33;;
3647;SDS011;1840;48.892;15.312;2022-07-23T03:17:08;19.50;;;13.20;;
3647;SDS011;1840;48.892;15.312;2022-07-23T03:19:36;20.20;;;14.30;;
3647;SDS011;1840;48.892;15.312;2022-07-23T03:22:05;19.37;;;13.00;;
3647;SDS011;1840;48.892;15.312;2022-07-23T03:24:34;18.83;;;12.70;;
3647;SDS011;1840;48.892;15.312;2022-07-23T03:27:17;18.83;;;14.67;;
3647;SDS011;1840;48.892;15.312;2022-07-23T03:29:49;17.57;;;12.50;;
3647;SDS011;1840;48.892;15.312;2022-07-23T03:32:18;17.53;;;12.43;;
3647;SDS011;1840;48.892;15.312;2022-07-23T03:34:46;20.40;;;12.80;;
3647;SDS011;1840;48.892;15.312;2022-07-23T03:37:14;22.37;;;14.50;;
3647;SDS011;1840;48.892;15.312;2022-07-23T03:39:44;21.03;;;12.27;;
3647;SDS011;1840;48.892;15.312;2022-07-23T03:42:12;20.10;;;13.20;;
3647;SDS011;1840;48.892;15.312;2022-07-23T03:44:40;20.10;;;11.73;;
3647;SDS011;1840;48.892;15.312;2022-07-23T03:47:08;17.70;;;12.80;;
3647;SDS011;1840;48.892;15.312;2022-07-23T03:49:36;20.90;;;13.00;;
3647;SDS011;1840;48.892;15.312;2022-07-23T03:52:04;18.13;;;13.20;;
3647;SDS011;1840;48.892;15.312;2022-07-23T03:54:32;22.83;;;14.13;;
3647;SDS011;1840;48.892;15.312;2022-07-23T03:57:02;19.37;;;14.10;;
3647;SDS011;1840;48.892;15.312;2022-07-23T03:59:31;19.30;;;14.37;;
3647;SDS011;1840;48.892;15.312;2022-07-23T04:02:00;20.30;;;13.83;;
3647;SDS011;1840;48.892;15.312;2022-07-23T04:04:28;17.70;;;13.73;;
3647;SDS011;1840;48.892;15.312;2022-07-23T04:06:56;24.20;;;13.77;;
3647;SDS011;1840;48.892;15.312;2022-07-23T04:09:24;19.63;;;14.30;;
3647;SDS011;1840;48.892;15.312;2022-07-23T04:11:52;20.57;;;14.77;;
3647;SDS011;1840;48.892;15.312;2022-07-23T04:14:22;17.77;;;13.53;;
3647;SDS011;1840;48.892;15.312;2022-07-23T04:16:50;17.40;;;13.90;;
3647;SDS011;1840;48.892;15.312;2022-07-23T04:19:18;22.30;;;14.80;;
3647;SDS011;1840;48.892;15.312;2022-07-23T04:21:46;18.87;;;13.33;;
3647;SDS011;1840;48.892;15.312;2022-07-23T04:24:14;18.67;;;13.60;;
3647;SDS011;1840;48.892;15.312;2022-07-23T04:26:42;19.07;;;14.00;;
3647;SDS011;1840;48.892;15.312;2022-07-23T04:29:10;28.23;;;14.57;;
3647;SDS011;1840;48.892;15.312;2022-07-23T04:31:39;21.93;;;13.40;;
3647;SDS011;1840;48.892;15.312;2022-07-23T04:34:08;16.53;;;12.97;;
3647;SDS011;1840;48.892;15.312;2022-07-23T04:36:36;22.30;;;13.30;;
3647;SDS011;1840;48.892;15.312;2022-07-23T04:39:05;22.57;;;13.67;;
3647;SDS011;1840;48.892;15.312;2022-07-23T04:41:33;25.27;;;14.20;;
3647;SDS011;1840;48.892;15.312;2022-07-23T04:44:02;18.50;;;12.77;;
3647;SDS011;1840;48.892;15.312;2022-07-23T04:46:30;21.30;;;14.40;;
3647;SDS011;1840;48.892;15.312;2022-07-23T04:49:01;22.30;;;12.30;;
3647;SDS011;1840;48.892;15.312;2022-07-23T04:51:30;18.80;;;13.33;;
3647;SDS011;1840;48.892;15.312;2022-07-23T04:53:58;22.23;;;14.17;;
3647;SDS011;1840;48.892;15.312;2022-07-23T04:56:26;18.17;;;13.90;;
3647;SDS011;1840;48.892;15.312;2022-07-23T04:58:54;20.67;;;13.70;;
3647;SDS011;1840;48.892;15.312;2022-07-23T05:01:22;25.20;;;14.33;;
3647;SDS011;1840;48.892;15.312;2022-07-23T05:03:50;19.30;;;13.57;;
3647;SDS011;1840;48.892;15.312;2022-07-23T05:06:20;22.37;;;14.47;;
3647;SDS011;1840;48.892;15.312;2022-07-23T05:08:48;18.07;;;14.50;;
3647;SDS011;1840;48.892;15.312;2022-07-23T05:11:16;25.57;;;14.70;;
3647;SDS011;1840;48.892;15.312;2022-07-23T05:13:51;17.73;;;13.13;;
3647;SDS011;1840;48.892;15.312;2022-07-23T05:16:19;17.30;;;12.30;;
3647;SDS011;1840;48.892;15.312;2022-07-23T05:18:48;16.70;;;11.80;;
3647;SDS011;1840;48.892;15.312;2022-07-23T05:21:15;20.00;;;13.83;;
3647;SDS011;1840;48.892;15.312;2022-07-23T05:23:45;22.20;;;14.30;;
3647;SDS011;1840;48.892;15.312;2022-07-23T05:26:13;18.87;;;13.73;;
3647;SDS011;1840;48.892;15.312;2022-07-23T05:28:41;20.70;;;14.10;;
3647;SDS011;1840;48.892;15.312;2022-07-23T05:31:15;21.17;;;15.27;;
3647;SDS011;1840;48.892;15.312;2022-07-23T05:33:43;23.77;;;13.20;;
3647;SDS011;1840;48.892;15.312;2022-07-23T05:36:12;19.00;;;14.10;;
3647;SDS011;1840;48.892;15.312;2022-07-23T05:38:40;20.10;;;13.50;;
3647;SDS011;1840;48.892;15.312;2022-07-23T05:41:09;17.00;;;13.00;;
3647;SDS011;1840;48.892;15.312;2022-07-23T05:43:37;20.83;;;14.50;;
3647;SDS011;1840;48.892;15.312;2022-07-23T05:46:05;21.40;;;13.47;;
3647;SDS011;1840;48.892;15.312;2022-07-23T05:48:34;23.30;;;15.13;;
3647;SDS011;1840;48.892;15.312;2022-07-23T05:51:02;22.43;;;15.40;;
3647;SDS011;1840;48.892;15.312;2022-07-23T05:53:33;18.33;;;13.83;;
3647;SDS011;1840;48.892;15.312;2022-07-23T05:56:01;16.73;;;13.43;;
3647;SDS011;1840;48.892;15.312;2022-07-23T05:58:31;26.90;;;17.13;;
3647;SDS011;1840;48.892;15.312;2022-07-23T06:00:59;20.87;;;13.80;;
3647;SDS011;1840;48.892;15.312;2022-07-23T06:03:27;24.63;;;14.77;;
3647;SDS011;1840;48.892;15.312;2022-07-23T06:05:56;19.70;;;14.43;;
3647;SDS011;1840;48.892;15.312;2022-07-23T06:08:24;19.83;;;15.03;;
3647;SDS011;1840;48.892;15.312;2022-07-23T06:10:53;19.47;;;13.80;;
3647;SDS011;1840;48.892;15.312;2022-07-23T06:13:21;17.93;;;13.23;;
3647;SDS011;1840;48.892;15.312;2022-07-23T06:15:50;19.23;;;14.40;;
3647;SDS011;1840;48.892;15.312;2022-07-23T06:18:18;18.83;;;13.40;;
3647;SDS011;1840;48.892;15.312;2022-07-23T06:20:47;17.10;;;13.40;;
3647;SDS011;1840;48.892;15.312;2022-07-23T06:23:17;18.07;;;11.73;;
3647;SDS011;1840;48.892;15.312;2022-07-23T06:25:45;25.77;;;12.40;;
3647;SDS011;1840;48.892;15.312;2022-07-23T06:28:13;20.83;;;14.27;;
3647;SDS011;1840;48.892;15.312;2022-07-23T06:30:42;20.57;;;12.90;;
3647;SDS011;1840;48.892;15.312;2022-07-23T06:33:11;15.07;;;11.87;;
3647;SDS011;1840;48.892;15.312;2022-07-23T06:35:39;15.80;;;12.07;;
3647;SDS011;1840;48.892;15.312;2022-07-23T06:38:08;22.83;;;14.00;;
3647;SDS011;1840;48.892;15.312;2022-07-23T06:40:36;19.07;;;13.03;;
3647;SDS011;1840;48.892;15.312;2022-07-23T06:43:04;15.83;;;11.80;;
3647;SDS011;1840;48.892;15.312;2022-07-23T06:45:32;18.50;;;11.60;;
3647;SDS011;1840;48.892;15.312;2022-07-23T06:48:00;12.13;;;9.37;;
3647;SDS011;1840;48.892;15.312;2022-07-23T06:50:30;12.10;;;9.57;;
3647;SDS011;1840;48.892;15.312;2022-07-23T06:52:58;12.00;;;9.33;;
3647;SDS011;1840;48.892;15.312;2022-07-23T06:55:26;17.40;;;9.13;;
3647;SDS011;1840;48.892;15.312;2022-07-23T06:57:55;11.67;;;8.37;;
3647;SDS011;1840;48.892;15.312;2022-07-23T07:00:23;20.87;;;10.03;;
3647;SDS011;1840;48.892;15.312;2022-07-23T07:02:53;11.03;;;7.90;;
3647;SDS011;1840;48.892;15.312;2022-07-23T07:05:21;15.67;;;8.30;;
3647;SDS011;1840;48.892;15.312;2022-07-23T07:07:53;10.30;;;8.07;;
3647;SDS011;1840;48.892;15.312;2022-07-23T07:10:21;9.80;;;8.30;;
3647;SDS011;1840;48.892;15.312;2022-07-23T07:12:50;12.73;;;9.00;;
3647;SDS011;1840;48.892;15.312;2022-07-23T07:15:18;9.67;;;7.57;;
3647;SDS011;1840;48.892;15.312;2022-07-23T07:17:46;13.40;;;9.33;;
3647;SDS011;1840;48.892;15.312;2022-07-23T07:20:14;13.07;;;8.33;;
3647;SDS011;1840;48.892;15.312;2022-07-23T07:22:42;11.60;;;8.80;;
3647;SDS011;1840;48.892;15.312;2022-07-23T07:25:12;10.60;;;8.70;;
3647;SDS011;1840;48.892;15.312;2022-07-23T07:27:41;12.87;;;9.90;;
3647;SDS011;1840;48.892;15.312;2022-07-23T07:30:10;10.20;;;8.17;;
3647;SDS011;1840;48.892;15.312;2022-07-23T07:32:39;12.30;;;8.53;;
3647;SDS011;1840;48.892;15.312;2022-07-23T07:35:23;11.10;;;8.57;;
3647;SDS011;1840;48.892;15.312;2022-07-23T07:37:52;12.93;;;8.23;;
3647;SDS011;1840;48.892;15.312;2022-07-23T07:40:21;11.10;;;8.00;;
3647;SDS011;1840;48.892;15.312;2022-07-23T07:42:50;13.63;;;8.20;;
3647;SDS011;1840;48.892;15.312;2022-07-23T07:45:19;12.20;;;8.53;;
3647;SDS011;1840;48.892;15.312;2022-07-23T07:47:48;13.03;;;8.90;;
3647;SDS011;1840;48.892;15.312;2022-07-23T07:50:16;12.73;;;8.93;;
3647;SDS011;1840;48.892;15.312;2022-07-23T07:52:44;12.27;;;8.70;;
3647;SDS011;1840;48.892;15.312;2022-07-23T07:55:12;12.50;;;8.80;;
3647;SDS011;1840;48.892;15.312;2022-07-23T07:57:42;19.33;;;8.90;;
3647;SDS011;1840;48.892;15.312;2022-07-23T08:00:15;13.17;;;9.53;;
3647;SDS011;1840;48.892;15.312;2022-07-23T08:02:46;14.20;;;10.47;;
3647;SDS011;1840;48.892;15.312;2022-07-23T08:05:18;15.93;;;9.70;;
3647;SDS011;1840;48.892;15.312;2022-07-23T08:07:53;12.40;;;8.90;;
3647;SDS011;1840;48.892;15.312;2022-07-23T08:10:22;12.73;;;9.40;;
3647;SDS011;1840;48.892;15.312;2022-07-23T08:12:52;12.53;;;9.63;;
3647;SDS011;1840;48.892;15.312;2022-07-23T08:15:22;12.17;;;9.60;;
3647;SDS011;1840;48.892;15.312;2022-07-23T08:17:52;13.47;;;9.70;;
3647;SDS011;1840;48.892;15.312;2022-07-23T08:20:21;15.37;;;9.50;;
3647;SDS011;1840;48.892;15.312;2022-07-23T08:22:51;17.90;;;10.27;;
3647;SDS011;1840;48.892;15.312;2022-07-23T08:25:21;12.00;;;9.07;;
3647;SDS011;1840;48.892;15.312;2022-07-23T08:27:52;11.43;;;9.07;;
3647;SDS011;1840;48.892;15.312;2022-07-23T08:30:21;15.63;;;9.37;;
3647;SDS011;1840;48.892;15.312;2022-07-23T08:32:53;14.90;;;10.00;;
3647;SDS011;1840;48.892;15.312;2022-07-23T08:35:24;13.67;;;9.90;;
3647;SDS011;1840;48.892;15.312;2022-07-23T08:37:54;13.53;;;9.67;;
3647;SDS011;1840;48.892;15.312;2022-07-23T08:40:23;12.93;;;10.27;;
3647;SDS011;1840;48.892;15.312;2022-07-23T08:42:54;17.97;;;10.50;;
3647;SDS011;1840;48.892;15.312;2022-07-23T08:45:23;19.80;;;10.70;;
3647;SDS011;1840;48.892;15.312;2022-07-23T08:47:52;15.67;;;9.83;;
3647;SDS011;1840;48.892;15.312;2022-07-23T08:50:23;14.10;;;9.47;;
3647;SDS011;1840;48.892;15.312;2022-07-23T08:52:52;15.93;;;10.73;;
3647;SDS011;1840;48.892;15.312;2022-07-23T08:55:22;14.03;;;10.33;;
3647;SDS011;1840;48.892;15.312;2022-07-23T08:57:51;14.50;;;10.27;;
3647;SDS011;1840;48.892;15.312;2022-07-23T09:00:21;11.10;;;8.63;;
3647;SDS011;1840;48.892;15.312;2022-07-23T09:02:50;16.57;;;10.70;;
3647;SDS011;1840;48.892;15.312;2022-07-23T09:05:18;17.57;;;10.10;;
3647;SDS011;1840;48.892;15.312;2022-07-23T09:08:06;18.20;;;10.73;;
3647;SDS011;1840;48.892;15.312;2022-07-23T09:10:46;23.93;;;11.83;;
3647;SDS011;1840;48.892;15.312;2022-07-23T09:13:29;14.90;;;9.47;;
3647;SDS011;1840;48.892;15.312;2022-07-23T09:16:04;14.93;;;9.70;;
3647;SDS011;1840;48.892;15.312;2022-07-23T09:18:35;14.87;;;10.60;;
3647;SDS011;1840;48.892;15.312;2022-07-23T09:21:16;15.80;;;10.47;;
3647;SDS011;1840;48.892;15.312;2022-07-23T09:23:47;13.57;;;10.30;;
3647;SDS011;1840;48.892;15.312;2022-07-23T09:26:20;13.87;;;10.40;;
3647;SDS011;1840;48.892;15.312;2022-07-23T09:28:54;16.10;;;10.77;;
3647;SDS011;1840;48.892;15.312;2022-07-23T09:31:30;14.03;;;10.23;;
3647;SDS011;1840;48.892;15.312;2022-07-23T09:34:07;12.40;;;10.13;;
3647;SDS011;1840;48.892;15.312;2022-07-23T09:36:36;16.67;;;9.77;;
3647;SDS011;1840;48.892;15.312;2022-07-23T09:39:05;14.37;;;11.10;;
3647;SDS011;1840;48.892;15.312;2022-07-23T09:41:34;17.47;;;10.67;;
3647;SDS011;1840;48.892;15.312;2022-07-23T09:44:11;14.33;;;11.47;;
3647;SDS011;1840;48.892;15.312;2022-07-23T09:46:42;15.93;;;9.73;;
3647;SDS011;1840;48.892;15.312;2022-07-23T09:49:15;13.27;;;10.20;;
3647;SDS011;1840;48.892;15.312;2022-07-23T09:51:45;14.37;;;10.37;;
3647;SDS011;1840;48.892;15.312;2022-07-23T09:54:25;14.40;;;10.30;;
3647;SDS011;1840;48.892;15.312;2022-07-23T09:56:57;19.10;;;9.13;;
3647;SDS011;1840;48.892;15.312;2022-07-23T09:59:27;17.20;;;10.53;;
3647;SDS011;1840;48.892;15.312;2022-07-23T10:01:58;14.23;;;10.23;;
3647;SDS011;1840;48.892;15.312;2022-07-23T10:04:28;17.60;;;11.43;;
3647;SDS011;1840;48.892;15.312;2022-07-23T10:06:58;13.53;;;9.93;;
3647;SDS011;1840;48.892;15.312;2022-07-23T10:09:28;21.73;;;11.83;;
3647;SDS011;1840;48.892;15.312;2022-07-23T10:11:58;18.10;;;10.77;;
3647;SDS011;1840;48.892;15.312;2022-07-23T10:14:54;12.73;;;9.30;;
3647;SDS011;1840;48.892;15.312;2022-07-23T10:17:25;15.23;;;10.47;;
3647;SDS011;1840;48.892;15.312;2022-07-23T10:19:55;15.93;;;10.50;;
3647;SDS011;1840;48.892;15.312;2022-07-23T10:22:24;13.57;;;11.47;;
3647;SDS011;1840;48.892;15.312;2022-07-23T10:24:59;14.20;;;10.60;;
3647;SDS011;1840;48.892;15.312;2022-07-23T10:30:31;14.00;;;10.57;;
3647;SDS011;1840;48.892;15.312;2022-07-23T10:33:20;17.13;;;10.40;;
3647;SDS011;1840;48.892;15.312;2022-07-23T10:36:00;14.20;;;11.07;;
3647;SDS011;1840;48.892;15.312;2022-07-23T10:38:34;13.90;;;10.73;;
3647;SDS011;1840;48.892;15.312;2022-07-23T10:41:10;16.07;;;9.97;;
3647;SDS011;1840;48.892;15.312;2022-07-23T10:43:39;16.33;;;11.00;;
3647;SDS011;1840;48.892;15.312;2022-07-23T10:46:20;14.63;;;10.10;;
3647;SDS011;1840;48.892;15.312;2022-07-23T10:54:52;14.50;;;9.27;;
3647;SDS011;1840;48.892;15.312;2022-07-23T10:57:22;11.70;;;8.17;;
3647;SDS011;1840;48.892;15.312;2022-07-23T11:02:44;19.13;;;9.90;;
3647;SDS011;1840;48.892;15.312;2022-07-23T11:05:15;12.30;;;7.83;;
3647;SDS011;1840;48.892;15.312;2022-07-23T11:10:41;10.70;;;7.00;;
3647;SDS011;1840;48.892;15.312;2022-07-23T11:13:26;8.80;;;6.50;;
3647;SDS011;1840;48.892;15.312;2022-07-23T11:21:47;11.23;;;7.63;;
3647;SDS011;1840;48.892;15.312;2022-07-23T11:24:22;10.17;;;7.37;;
3647;SDS011;1840;48.892;15.312;2022-07-23T11:26:58;9.03;;;7.10;;
3647;SDS011;1840;48.892;15.312;2022-07-23T11:29:38;10.97;;;7.57;;
3647;SDS011;1840;48.892;15.312;2022-07-23T11:32:22;14.00;;;7.03;;
3647;SDS011;1840;48.892;15.312;2022-07-23T11:34:59;9.83;;;6.87;;
3647;SDS011;1840;48.892;15.312;2022-07-23T11:37:31;9.53;;;6.77;;
3647;SDS011;1840;48.892;15.312;2022-07-23T11:40:05;11.13;;;6.10;;
3647;SDS011;1840;48.892;15.312;2022-07-23T11:42:36;9.07;;;5.90;;
3647;SDS011;1840;48.892;15.312;2022-07-23T11:45:06;12.43;;;6.40;;
3647;SDS011;1840;48.892;15.312;2022-07-23T11:47:35;7.90;;;6.00;;
3647;SDS011;1840;48.892;15.312;2022-07-23T11:50:05;8.80;;;5.37;;
3647;SDS011;1840;48.892;15.312;2022-07-23T11:52:35;9.07;;;6.00;;
3647;SDS011;1840;48.892;15.312;2022-07-23T11:55:04;9.00;;;6.83;;
3647;SDS011;1840;48.892;15.312;2022-07-23T11:57:35;14.70;;;6.23;;
3647;SDS011;1840;48.892;15.312;2022-07-23T12:00:05;9.73;;;5.97;;
3647;SDS011;1840;48.892;15.312;2022-07-23T12:02:37;8.87;;;6.50;;
3647;SDS011;1840;48.892;15.312;2022-07-23T12:05:06;9.07;;;5.93;;
3647;SDS011;1840;48.892;15.312;2022-07-23T12:07:37;11.17;;;5.73;;
3647;SDS011;1840;48.892;15.312;2022-07-23T12:10:09;15.20;;;6.10;;
3647;SDS011;1840;48.892;15.312;2022-07-23T12:12:39;9.10;;;5.33;;
3647;SDS011;1840;48.892;15.312;2022-07-23T12:15:09;9.90;;;5.50;;
3647;SDS011;1840;48.892;15.312;2022-07-23T12:17:38;6.30;;;4.67;;
3647;SDS011;1840;48.892;15.312;2022-07-23T12:20:15;12.07;;;4.90;;
3647;SDS011;1840;48.892;15.312;2022-07-23T12:22:46;8.13;;;5.40;;
3647;SDS011;1840;48.892;15.312;2022-07-23T12:25:16;7.83;;;5.10;;
3647;SDS011;1840;48.892;15.312;2022-07-23T12:27:57;10.07;;;5.17;;
3647;SDS011;1840;48.892;15.312;2022-07-23T12:30:28;8.30;;;4.83;;
3647;SDS011;1840;48.892;15.312;2022-07-23T12:33:00;7.27;;;4.63;;
3647;SDS011;1840;48.892;15.312;2022-07-23T12:35:30;9.07;;;4.93;;
3647;SDS011;1840;48.892;15.312;2022-07-23T12:38:03;8.10;;;5.17;;
3647;SDS011;1840;48.892;15.312;2022-07-23T12:40:33;21.33;;;5.30;;
3647;SDS011;1840;48.892;15.312;2022-07-23T12:43:04;8.07;;;5.17;;
3647;SDS011;1840;48.892;15.312;2022-07-23T12:45:43;8.67;;;5.33;;
3647;SDS011;1840;48.892;15.312;2022-07-23T12:48:18;8.50;;;5.23;;
3647;SDS011;1840;48.892;15.312;2022-07-23T12:50:49;9.53;;;4.70;;
3647;SDS011;1840;48.892;15.312;2022-07-23T12:53:20;7.37;;;4.53;;
3647;SDS011;1840;48.892;15.312;2022-07-23T12:55:51;7.70;;;4.97;;
3647;SDS011;1840;48.892;15.312;2022-07-23T12:58:46;7.93;;;5.10;;
3647;SDS011;1840;48.892;15.312;2022-07-23T13:01:26;8.27;;;5.43;;
3647;SDS011;1840;48.892;15.312;2022-07-23T13:03:58;8.90;;;5.33;;
3647;SDS011;1840;48.892;15.312;2022-07-23T13:06:39;8.20;;;5.90;;
3647;SDS011;1840;48.892;15.312;2022-07-23T13:09:11;7.43;;;5.17;;
3647;SDS011;1840;48.892;15.312;2022-07-23T13:11:41;8.77;;;5.37;;
3647;SDS011;1840;48.892;15.312;2022-07-23T13:14:10;9.27;;;5.67;;
3647;SDS011;1840;48.892;15.312;2022-07-23T13:16:40;8.87;;;5.53;;
3647;SDS011;1840;48.892;15.312;2022-07-23T13:19:09;12.63;;;5.77;;
3647;SDS011;1840;48.892;15.312;2022-07-23T13:21:39;7.03;;;5.20;;
3647;SDS011;1840;48.892;15.312;2022-07-23T13:24:08;9.23;;;6.13;;
3647;SDS011;1840;48.892;15.312;2022-07-23T13:26:39;8.67;;;5.50;;
3647;SDS011;1840;48.892;15.312;2022-07-23T13:29:08;8.53;;;5.90;;
3647;SDS011;1840;48.892;15.312;2022-07-23T13:31:37;7.33;;;5.90;;
3647;SDS011;1840;48.892;15.312;2022-07-23T13:34:06;11.23;;;5.63;;
3647;SDS011;1840;48.892;15.312;2022-07-23T13:36:34;8.17;;;6.27;;
3647;SDS011;1840;48.892;15.312;2022-07-23T13:39:03;10.03;;;6.30;;
3647;SDS011;1840;48.892;15.312;2022-07-23T13:41:35;8.40;;;5.70;;
3647;SDS011;1840;48.892;15.312;2022-07-23T13:44:05;9.37;;;5.80;;
3647;SDS011;1840;48.892;15.312;2022-07-23T13:46:33;9.30;;;5.73;;
3647;SDS011;1840;48.892;15.312;2022-07-23T13:49:02;8.20;;;5.90;;
3647;SDS011;1840;48.892;15.312;2022-07-23T13:51:50;9.50;;;5.47;;
3647;SDS011;1840;48.892;15.312;2022-07-23T13:54:19;12.00;;;6.10;;
3647;SDS011;1840;48.892;15.312;2022-07-23T13:56:47;7.37;;;5.80;;
3647;SDS011;1840;48.892;15.312;2022-07-23T13:59:17;10.70;;;5.60;;
3647;SDS011;1840;48.892;15.312;2022-07-23T14:01:45;9.70;;;5.90;;
3647;SDS011;1840;48.892;15.312;2022-07-23T14:04:33;8.37;;;5.67;;
3647;SDS011;1840;48.892;15.312;2022-07-23T14:07:02;10.13;;;5.90;;
3647;SDS011;1840;48.892;15.312;2022-07-23T14:09:30;9.87;;;5.70;;
3647;SDS011;1840;48.892;15.312;2022-07-23T14:12:00;8.07;;;5.20;;
3647;SDS011;1840;48.892;15.312;2022-07-23T14:14:29;8.60;;;6.00;;
3647;SDS011;1840;48.892;15.312;2022-07-23T14:16:57;8.77;;;6.23;;
3647;SDS011;1840;48.892;15.312;2022-07-23T14:19:27;13.60;;;5.80;;
3647;SDS011;1840;48.892;15.312;2022-07-23T14:21:56;8.60;;;5.60;;
3647;SDS011;1840;48.892;15.312;2022-07-23T14:24:24;9.33;;;5.50;;
3647;SDS011;1840;48.892;15.312;2022-07-23T14:26:59;8.90;;;6.00;;
3647;SDS011;1840;48.892;15.312;2022-07-23T14:29:29;7.50;;;6.07;;
3647;SDS011;1840;48.892;15.312;2022-07-23T14:31:58;7.40;;;5.37;;
3647;SDS011;1840;48.892;15.312;2022-07-23T14:34:27;7.97;;;5.67;;
3647;SDS011;1840;48.892;15.312;2022-07-23T14:36:57;10.13;;;5.37;;
3647;SDS011;1840;48.892;15.312;2022-07-23T14:39:26;7.97;;;5.23;;
3647;SDS011;1840;48.892;15.312;2022-07-23T14:41:56;9.23;;;5.13;;
3647;SDS011;1840;48.892;15.312;2022-07-23T14:44:24;8.40;;;5.47;;
3647;SDS011;1840;48.892;15.312;2022-07-23T14:46:53;7.50;;;4.80;;
3647;SDS011;1840;48.892;15.312;2022-07-23T14:49:22;9.83;;;5.40;;
3647;SDS011;1840;48.892;15.312;2022-07-23T14:51:52;10.50;;;5.60;;
3647;SDS011;1840;48.892;15.312;2022-07-23T14:54:21;12.67;;;4.60;;
3647;SDS011;1840;48.892;15.312;2022-07-23T14:56:52;8.90;;;5.27;;
3647;SDS011;1840;48.892;15.312;2022-07-23T14:59:21;8.97;;;5.00;;
3647;SDS011;1840;48.892;15.312;2022-07-23T15:01:50;8.17;;;4.53;;
3647;SDS011;1840;48.892;15.312;2022-07-23T15:04:20;7.90;;;4.87;;
3647;SDS011;1840;48.892;15.312;2022-07-23T15:07:06;7.30;;;4.50;;
3647;SDS011;1840;48.892;15.312;2022-07-23T15:09:35;7.23;;;4.70;;
3647;SDS011;1840;48.892;15.312;2022-07-23T15:12:04;7.63;;;4.97;;
3647;SDS011;1840;48.892;15.312;2022-07-23T15:14:52;8.50;;;5.03;;
3647;SDS011;1840;48.892;15.312;2022-07-23T15:17:20;9.17;;;4.60;;
3647;SDS011;1840;48.892;15.312;2022-07-23T15:19:53;7.37;;;4.23;;
3647;SDS011;1840;48.892;15.312;2022-07-23T15:22:22;7.67;;;4.87;;